createdAt,value
2018-11-04T00:01:04.965Z,8.93
2018-11-04T00:03:38.834Z,9.03
2018-11-04T00:06:12.664Z,10.27
2018-11-04T00:08:46.582Z,10.67
2018-11-04T00:11:20.465Z,10.90
2018-11-04T00:13:54.356Z,12.57
2018-11-04T00:16:28.163Z,9.57
2018-11-04T00:19:02.076Z,10.17
2018-11-04T00:21:35.926Z,10.63
2018-11-04T00:24:09.885Z,9.97
2018-11-04T00:26:43.650Z,10.17
2018-11-04T00:29:17.598Z,11.23
2018-11-04T00:31:51.445Z,13.67
2018-11-04T00:34:25.330Z,10.17
2018-11-04T00:36:59.201Z,10.63
2018-11-04T00:39:33.030Z,10.37
2018-11-04T00:42:06.859Z,11.17
2018-11-04T00:44:40.736Z,12.00
2018-11-04T00:47:14.570Z,10.30
2018-11-04T00:49:48.423Z,10.53
2018-11-04T00:52:22.240Z,10.33
2018-11-04T00:54:56.249Z,13.60
2018-11-04T00:57:30.075Z,9.40
2018-11-04T01:00:04.539Z,10.53
2018-11-04T01:02:38.397Z,8.93
2018-11-04T01:05:12.226Z,9.30
2018-11-04T01:07:46.096Z,10.50
2018-11-04T01:10:19.981Z,10.07
2018-11-04T01:12:53.766Z,13.47
2018-11-04T01:15:27.611Z,10.90
2018-11-04T01:18:01.464Z,13.10
2018-11-04T01:20:35.354Z,18.10
2018-11-04T01:23:09.292Z,13.57
2018-11-04T01:25:43.157Z,12.67
2018-11-04T01:28:17.005Z,15.33
2018-11-04T01:30:50.869Z,14.30
2018-11-04T01:33:24.721Z,13.67
2018-11-04T01:35:58.597Z,14.70
2018-11-04T01:38:32.435Z,20.97
2018-11-04T01:41:06.358Z,14.93
2018-11-04T01:43:40.178Z,13.20
2018-11-04T01:46:14.027Z,14.17
2018-11-04T01:48:47.908Z,15.53
2018-11-04T01:51:21.749Z,12.83
2018-11-04T01:53:55.624Z,13.90
2018-11-04T01:56:29.476Z,11.90
2018-11-04T01:59:03.596Z,13.47
2018-11-04T02:01:37.468Z,18.67
2018-11-04T02:04:11.314Z,12.73
2018-11-04T02:06:45.150Z,12.67
2018-11-04T02:09:18.954Z,12.40
2018-11-04T02:11:52.886Z,13.80
2018-11-04T02:14:26.732Z,13.97
2018-11-04T02:17:00.585Z,12.60
2018-11-04T02:19:34.406Z,15.13
2018-11-04T02:22:08.229Z,12.70
2018-11-04T02:24:42.047Z,15.43
2018-11-04T02:27:15.967Z,14.27
2018-11-04T02:29:49.769Z,17.50
2018-11-04T02:32:23.603Z,13.23
2018-11-04T02:34:57.396Z,14.77
2018-11-04T02:37:31.309Z,15.63
2018-11-04T02:40:05.410Z,23.23
2018-11-04T02:42:39.264Z,14.83
2018-11-04T02:45:13.060Z,13.83
2018-11-04T02:47:46.942Z,15.17
2018-11-04T02:50:20.885Z,19.30
2018-11-04T02:52:56.039Z,20.57
2018-11-04T02:55:29.843Z,18.40
2018-11-04T02:58:03.749Z,17.00
2018-11-04T03:00:37.564Z,19.50
2018-11-04T03:03:11.441Z,15.67
2018-11-04T03:05:45.260Z,14.07
2018-11-04T03:08:19.191Z,14.00
2018-11-04T03:10:52.981Z,13.77
2018-11-04T03:13:26.909Z,15.40
2018-11-04T03:16:00.744Z,16.33
2018-11-04T03:18:34.577Z,19.07
2018-11-04T03:21:08.701Z,16.10
2018-11-04T03:23:42.575Z,15.23
2018-11-04T03:26:16.397Z,15.97
2018-11-04T03:28:50.410Z,21.40
2018-11-04T03:31:24.248Z,15.43
2018-11-04T03:33:58.144Z,15.97
2018-11-04T03:36:32.009Z,13.93
2018-11-04T03:39:08.028Z,17.87
2018-11-04T03:41:42.628Z,16.20
2018-11-04T03:44:16.421Z,24.17
2018-11-04T03:46:50.243Z,17.03
2018-11-04T03:49:24.084Z,24.03
2018-11-04T03:51:57.917Z,17.60
2018-11-04T03:54:31.786Z,23.97
2018-11-04T03:57:06.141Z,17.77
2018-11-04T03:59:40.146Z,16.60
2018-11-04T04:02:13.971Z,16.30
2018-11-04T04:04:47.930Z,16.10
2018-11-04T04:07:21.789Z,15.20
2018-11-04T04:09:55.649Z,13.03
2018-11-04T04:12:29.479Z,14.03
2018-11-04T04:15:03.354Z,12.90
2018-11-04T04:17:37.228Z,15.07
2018-11-04T04:20:11.146Z,14.17
2018-11-04T04:22:45.008Z,19.70
2018-11-04T04:25:18.925Z,14.40
2018-11-04T04:27:52.762Z,16.43
2018-11-04T04:30:26.606Z,15.07
2018-11-04T04:33:00.401Z,15.00
2018-11-04T04:35:34.477Z,14.07
2018-11-04T04:38:08.275Z,15.80
2018-11-04T04:40:42.137Z,15.90
2018-11-04T04:43:15.965Z,15.23
2018-11-04T04:45:49.813Z,18.10
2018-11-04T04:48:23.652Z,15.80
2018-11-04T04:50:57.523Z,15.37
2018-11-04T04:53:31.375Z,18.40
2018-11-04T04:56:05.232Z,15.00
2018-11-04T04:58:39.041Z,16.67
2018-11-04T05:01:12.919Z,23.90
2018-11-04T05:03:46.748Z,17.27
2018-11-04T05:06:20.585Z,16.57
2018-11-04T05:08:54.694Z,18.33
2018-11-04T05:11:28.552Z,17.23
2018-11-04T05:14:02.427Z,36.27
2018-11-04T05:16:36.278Z,21.87
2018-11-04T05:19:10.092Z,21.60
2018-11-04T05:21:44.144Z,15.20
2018-11-04T05:24:17.946Z,17.43
2018-11-04T05:26:51.766Z,21.03
2018-11-04T05:29:25.578Z,17.17
2018-11-04T05:31:59.409Z,31.73
2018-11-04T05:34:33.286Z,16.07
2018-11-04T05:37:07.136Z,18.63
2018-11-04T05:39:40.949Z,15.60
2018-11-04T05:42:14.813Z,40.93
2018-11-04T05:44:48.608Z,18.00
2018-11-04T05:47:22.462Z,19.30
2018-11-04T05:49:56.271Z,32.53
2018-11-04T05:52:30.243Z,19.17
2018-11-04T05:55:04.492Z,18.70
2018-11-04T05:57:38.477Z,18.07
2018-11-04T06:00:12.464Z,15.83
2018-11-04T06:02:46.309Z,16.10
2018-11-04T06:05:20.189Z,14.77
2018-11-04T06:07:54.137Z,16.00
2018-11-04T06:10:27.950Z,23.67
2018-11-04T06:13:01.839Z,16.40
2018-11-04T06:15:35.675Z,21.03
2018-11-04T06:18:09.785Z,24.73
2018-11-04T06:20:43.698Z,34.53
2018-11-04T06:23:17.663Z,34.73
2018-11-04T06:25:51.493Z,23.23
2018-11-04T06:28:25.370Z,21.30
2018-11-04T06:30:59.225Z,21.13
2018-11-04T06:33:33.192Z,22.60
2018-11-04T06:36:07.038Z,19.13
2018-11-04T06:38:40.867Z,21.87
2018-11-04T06:41:14.740Z,21.17
2018-11-04T06:43:48.685Z,16.33
2018-11-04T06:46:22.607Z,16.67
2018-11-04T06:48:56.452Z,16.77
2018-11-04T06:51:30.326Z,22.40
2018-11-04T06:54:04.203Z,19.63
2018-11-04T06:56:38.038Z,26.13
2018-11-04T06:59:11.917Z,36.53
2018-11-04T07:01:45.784Z,25.17
2018-11-04T07:04:22.136Z,19.80
2018-11-04T07:06:56.013Z,19.63
2018-11-04T07:09:29.978Z,21.87
2018-11-04T07:12:03.765Z,23.30
2018-11-04T07:14:37.645Z,24.40
2018-11-04T07:17:11.489Z,18.50
2018-11-04T07:19:45.458Z,17.77
2018-11-04T07:22:19.296Z,17.50
2018-11-04T07:24:53.174Z,19.23
2018-11-04T07:27:27.007Z,18.53
2018-11-04T07:30:00.889Z,21.23
2018-11-04T07:32:34.793Z,20.60
2018-11-04T07:35:09.282Z,16.63
2018-11-04T07:37:43.100Z,23.83
2018-11-04T07:40:16.969Z,25.27
2018-11-04T07:42:50.782Z,19.43
2018-11-04T07:45:24.629Z,29.93
2018-11-04T07:47:58.433Z,25.10
2018-11-04T07:50:32.410Z,23.00
2018-11-04T07:53:06.523Z,39.40
2018-11-04T07:55:40.489Z,30.90
2018-11-04T07:58:14.322Z,35.53
2018-11-04T08:00:48.197Z,22.67
2018-11-04T08:03:22.059Z,29.50
2018-11-04T08:05:55.947Z,83.87
2018-11-04T08:08:29.783Z,115.90
2018-11-04T08:11:03.644Z,131.10
2018-11-04T08:13:37.554Z,152.77
2018-11-04T08:16:11.352Z,77.40
2018-11-04T08:18:45.225Z,122.17
2018-11-04T08:21:19.220Z,63.90
2018-11-04T08:23:53.972Z,59.60
2018-11-04T08:26:27.913Z,53.70
2018-11-04T08:29:01.745Z,53.83
2018-11-04T08:31:35.600Z,55.37
2018-11-04T08:34:09.432Z,58.27
2018-11-04T08:36:43.294Z,104.87
2018-11-04T08:39:17.095Z,65.13
2018-11-04T08:41:51.068Z,116.50
2018-11-04T08:44:24.926Z,74.57
2018-11-04T08:46:58.818Z,76.80
2018-11-04T08:49:32.634Z,71.20
2018-11-04T08:52:06.525Z,66.60
2018-11-04T08:54:40.367Z,84.13
2018-11-04T08:57:14.550Z,75.50
2018-11-04T08:59:48.397Z,101.20
2018-11-04T09:02:23.450Z,75.13
2018-11-04T09:04:57.371Z,92.90
2018-11-04T09:07:31.249Z,71.37
2018-11-04T09:10:07.118Z,70.60
2018-11-04T09:12:41.149Z,66.03
2018-11-04T09:15:15.029Z,70.13
2018-11-04T09:17:48.886Z,90.33
2018-11-04T09:20:22.705Z,71.70
2018-11-04T09:22:56.602Z,72.20
2018-11-04T09:25:30.476Z,76.17
2018-11-04T09:28:04.501Z,71.20
2018-11-04T09:30:38.299Z,84.00
2018-11-04T09:33:12.137Z,83.60
2018-11-04T09:35:46.144Z,61.97
2018-11-04T09:38:19.904Z,77.70
2018-11-04T09:40:53.746Z,64.53
2018-11-04T09:43:27.679Z,60.97
2018-11-04T09:46:01.480Z,61.43
2018-11-04T09:48:35.361Z,55.60
2018-11-04T09:51:09.240Z,51.93
2018-11-04T09:53:43.099Z,54.80
2018-11-04T09:56:16.998Z,60.17
2018-11-04T09:58:50.899Z,53.77
2018-11-04T10:01:24.717Z,56.53
2018-11-04T10:03:58.577Z,65.47
2018-11-04T10:06:32.435Z,55.63
2018-11-04T10:09:08.441Z,56.83
2018-11-04T10:11:42.297Z,66.37
2018-11-04T10:14:16.240Z,59.37
2018-11-04T10:16:50.061Z,65.17
2018-11-04T10:19:24.335Z,58.53
2018-11-04T10:21:58.204Z,53.00
2018-11-04T10:24:32.104Z,59.43
2018-11-04T10:27:05.968Z,55.67
2018-11-04T10:29:39.802Z,48.27
2018-11-04T10:32:13.616Z,52.20
2018-11-04T10:34:47.473Z,57.33
2018-11-04T10:37:21.383Z,54.53
2018-11-04T10:39:55.336Z,53.93
2018-11-04T10:42:29.274Z,55.87
2018-11-04T10:45:03.222Z,49.90
2018-11-04T10:47:37.107Z,55.40
2018-11-04T10:50:12.314Z,47.60
2018-11-04T10:55:25.505Z,57.37
2018-11-04T10:57:59.329Z,55.90
2018-11-04T11:00:38.247Z,56.57
2018-11-04T11:03:12.067Z,54.08
2018-11-04T11:05:45.925Z,56.37
2018-11-04T11:08:19.782Z,57.10
2018-11-04T11:10:53.660Z,60.33
2018-11-04T11:13:27.485Z,53.77
2018-11-04T11:16:01.494Z,59.90
2018-11-04T11:18:35.341Z,52.30
2018-11-04T11:21:09.233Z,56.97
2018-11-04T11:23:43.059Z,54.63
2018-11-04T11:26:17.656Z,60.40
2018-11-04T11:28:51.485Z,52.08
2018-11-04T11:31:25.354Z,52.25
2018-11-04T11:33:59.198Z,55.60
2018-11-04T11:36:33.196Z,57.75
2018-11-04T11:39:09.523Z,59.15
2018-11-04T11:41:44.075Z,60.92
2018-11-04T11:44:17.931Z,55.63
2018-11-04T11:46:51.812Z,59.27
2018-11-04T11:49:25.640Z,53.70
2018-11-04T11:52:00.753Z,59.45
2018-11-04T11:54:35.761Z,51.00
2018-11-04T11:57:12.957Z,54.13
2018-11-04T11:59:48.076Z,50.52
2018-11-04T12:02:23.117Z,60.90
2018-11-04T12:04:58.808Z,52.67
2018-11-04T12:07:32.748Z,50.80
2018-11-04T12:10:08.502Z,52.58
2018-11-04T12:12:42.618Z,53.17
2018-11-04T12:15:16.603Z,48.23
2018-11-04T12:17:50.483Z,47.35
2018-11-04T12:20:24.323Z,45.85
2018-11-04T12:22:58.207Z,47.43
2018-11-04T12:25:32.017Z,47.00
2018-11-04T12:28:05.932Z,47.08
2018-11-04T12:30:39.739Z,50.35
2018-11-04T12:33:13.570Z,43.55
2018-11-04T12:35:47.386Z,54.03
2018-11-04T12:38:21.404Z,42.25
2018-11-04T12:40:55.253Z,41.73
2018-11-04T12:43:29.289Z,41.55
2018-11-04T12:46:03.147Z,46.50
2018-11-04T12:48:37.006Z,48.02
2018-11-04T12:51:10.862Z,42.95
2018-11-04T12:53:44.719Z,46.05
2018-11-04T12:56:18.540Z,45.08
2018-11-04T12:58:52.474Z,46.18
2018-11-04T13:01:26.327Z,47.20
2018-11-04T13:04:00.256Z,45.63
2018-11-04T13:06:34.057Z,52.10
2018-11-04T13:09:09.174Z,46.70
2018-11-04T13:11:43.010Z,53.98
2018-11-04T13:14:16.872Z,50.12
2018-11-04T13:16:50.846Z,51.33
2018-11-04T13:19:24.790Z,51.20
2018-11-04T13:21:58.602Z,48.83
2018-11-04T13:24:32.743Z,52.35
2018-11-04T13:27:06.692Z,44.33
2018-11-04T13:29:40.502Z,47.08
2018-11-04T13:32:14.304Z,44.65
2018-11-04T13:34:48.250Z,46.13
2018-11-04T13:37:22.106Z,46.42
2018-11-04T13:39:56.159Z,43.52
2018-11-04T13:42:30.009Z,43.38
2018-11-04T13:45:03.895Z,41.85
2018-11-04T13:47:37.974Z,45.78
2018-11-04T13:50:13.593Z,44.63
2018-11-04T13:52:47.444Z,44.10
2018-11-04T13:55:21.300Z,42.88
2018-11-04T13:57:55.148Z,49.83
2018-11-04T14:00:29.032Z,44.20
2018-11-04T14:03:02.872Z,49.40
2018-11-04T14:05:36.750Z,50.05
2018-11-04T14:08:10.570Z,44.88
2018-11-04T14:10:44.544Z,47.48
2018-11-04T14:13:18.455Z,49.40
2018-11-04T14:15:52.271Z,45.00
2018-11-04T14:18:26.045Z,42.93
2018-11-04T14:20:59.922Z,43.25
2018-11-04T14:23:33.826Z,41.58
2018-11-04T14:26:08.095Z,42.85
2018-11-04T14:28:41.977Z,40.88
2018-11-04T14:31:15.964Z,45.25
2018-11-04T14:33:49.860Z,41.20
2018-11-04T14:36:23.749Z,43.00
2018-11-04T14:38:57.560Z,43.38
2018-11-04T14:41:31.438Z,42.03
2018-11-04T14:44:05.566Z,42.88
2018-11-04T14:46:39.423Z,42.80
2018-11-04T14:49:13.248Z,42.93
2018-11-04T14:51:47.112Z,46.70
2018-11-04T14:54:21.390Z,46.55
2018-11-04T14:56:55.253Z,44.27
2018-11-04T14:59:29.238Z,43.83
2018-11-04T15:02:03.176Z,45.03
2018-11-04T15:04:36.980Z,47.23
2018-11-04T15:07:10.914Z,46.53
2018-11-04T15:09:44.715Z,43.58
2018-11-04T15:12:18.616Z,45.20
2018-11-04T15:14:52.460Z,41.75
2018-11-04T15:17:26.398Z,47.35
2018-11-04T15:20:00.228Z,46.10
2018-11-04T15:22:34.276Z,44.50
2018-11-04T15:25:08.136Z,46.57
2018-11-04T15:27:41.968Z,52.50
2018-11-04T15:30:15.764Z,50.67
2018-11-04T15:32:49.660Z,46.33
2018-11-04T15:35:23.484Z,53.87
2018-11-04T15:37:57.373Z,49.13
2018-11-04T15:40:31.318Z,51.20
2018-11-04T15:43:05.290Z,59.73
2018-11-04T15:45:39.161Z,54.20
2018-11-04T15:48:13.039Z,54.80
2018-11-04T15:50:46.844Z,53.40
2018-11-04T15:53:20.807Z,68.70
2018-11-04T15:55:54.627Z,62.40
2018-11-04T15:58:28.464Z,57.07
2018-11-04T16:01:02.310Z,55.63
2018-11-04T16:03:36.148Z,63.53
2018-11-04T16:06:10.017Z,59.90
2018-11-04T16:08:43.843Z,65.37
2018-11-04T16:11:17.729Z,77.20
2018-11-04T16:13:51.641Z,74.90
2018-11-04T16:16:25.570Z,69.10
2018-11-04T16:18:59.479Z,73.13
2018-11-04T16:21:33.326Z,81.47
2018-11-04T16:24:07.274Z,88.40
2018-11-04T16:26:41.111Z,91.33
2018-11-04T16:29:14.965Z,76.87
2018-11-04T16:31:49.038Z,101.30
2018-11-04T16:34:23.306Z,83.30
2018-11-04T16:36:57.259Z,73.73
2018-11-04T16:39:31.289Z,118.00
2018-11-04T16:42:05.528Z,76.53
2018-11-04T16:44:39.770Z,77.43
2018-11-04T16:47:13.798Z,69.50
2018-11-04T16:49:48.080Z,75.83
2018-11-04T16:52:22.322Z,78.10
2018-11-04T16:54:56.706Z,119.13
2018-11-04T16:57:30.688Z,87.33
2018-11-04T17:00:04.816Z,167.43
2018-11-04T17:02:39.279Z,77.42
2018-11-04T17:05:13.830Z,72.77
2018-11-04T17:07:47.998Z,119.37
2018-11-04T17:10:22.293Z,77.07
2018-11-04T17:12:56.376Z,141.60
2018-11-04T17:15:30.626Z,149.10
2018-11-04T17:18:04.898Z,177.77
2018-11-04T17:20:39.028Z,162.53
2018-11-04T17:23:13.032Z,105.95
2018-11-04T17:25:47.092Z,95.20
2018-11-04T17:28:21.091Z,76.37
2018-11-04T17:30:55.141Z,126.13
2018-11-04T17:33:29.384Z,81.70
2018-11-04T17:36:03.568Z,92.10
2018-11-04T17:38:37.670Z,134.70
2018-11-04T17:41:11.769Z,187.27
2018-11-04T17:43:45.986Z,77.67
2018-11-04T17:46:20.297Z,80.40
2018-11-04T17:48:54.497Z,78.63
2018-11-04T17:51:28.571Z,104.77
2018-11-04T17:54:02.631Z,70.90
2018-11-04T17:56:36.701Z,74.37
2018-11-04T17:59:10.903Z,75.30
2018-11-04T18:01:45.121Z,131.82
2018-11-04T18:04:19.127Z,175.47
2018-11-04T18:06:53.244Z,101.50
2018-11-04T18:09:27.265Z,138.70
2018-11-04T18:12:01.312Z,181.20
2018-11-04T18:14:35.317Z,94.13
2018-11-04T18:17:09.453Z,97.50
2018-11-04T18:19:43.467Z,122.92
2018-11-04T18:22:17.517Z,114.37
2018-11-04T18:24:51.565Z,166.00
2018-11-04T18:27:25.914Z,105.37
2018-11-04T18:30:00.127Z,218.33
2018-11-04T18:32:34.165Z,258.83
2018-11-04T18:35:08.317Z,179.20
2018-11-04T18:37:42.487Z,99.10
2018-11-04T18:40:18.138Z,219.87
2018-11-04T18:42:52.403Z,149.23
2018-11-04T18:45:26.527Z,217.13
2018-11-04T18:48:00.599Z,446.00
2018-11-04T18:50:34.903Z,144.40
2018-11-04T18:53:09.255Z,211.40
2018-11-04T18:55:43.253Z,218.45
2018-11-04T18:58:17.302Z,144.37
2018-11-04T19:00:51.370Z,154.40
2018-11-04T19:03:25.393Z,117.83
2018-11-04T19:05:59.412Z,217.33
2018-11-04T19:08:33.592Z,138.27
2018-11-04T19:11:07.879Z,174.53
2018-11-04T19:13:42.135Z,122.33
2018-11-04T19:16:16.148Z,301.43
2018-11-04T19:18:50.546Z,118.43
2018-11-04T19:21:24.522Z,179.90
2018-11-04T19:23:58.564Z,246.47
2018-11-04T19:26:32.586Z,184.07
2018-11-04T19:29:07.057Z,116.20
2018-11-04T19:31:41.282Z,301.17
2018-11-04T19:34:15.553Z,232.50
2018-11-04T19:36:49.737Z,119.28
2018-11-04T19:39:23.993Z,119.90
2018-11-04T19:41:58.194Z,120.30
2018-11-04T19:44:32.383Z,265.10
2018-11-04T19:47:07.308Z,360.17
2018-11-04T19:49:41.680Z,148.82
2018-11-04T19:52:15.970Z,233.13
2018-11-04T19:54:50.237Z,100.97
2018-11-04T19:57:28.859Z,129.17
2018-11-04T20:00:03.652Z,181.45
2018-11-04T20:02:38.997Z,115.33
2018-11-04T20:05:14.737Z,280.53
2018-11-04T20:07:49.194Z,111.43
2018-11-04T20:10:29.950Z,164.53
2018-11-04T20:13:09.177Z,266.15
2018-11-04T20:15:43.415Z,133.40
2018-11-04T20:18:22.566Z,195.23
2018-11-04T20:20:56.820Z,124.67
2018-11-04T20:23:30.960Z,108.47
2018-11-04T20:26:07.132Z,131.13
2018-11-04T20:28:41.207Z,132.05
2018-11-04T20:31:21.724Z,94.60
2018-11-04T20:33:54.857Z,196.63
2018-11-04T20:36:29.317Z,104.27
2018-11-04T20:39:08.451Z,186.33
2018-11-04T20:41:43.329Z,159.43
2018-11-04T20:44:17.532Z,240.70
2018-11-04T20:46:51.636Z,142.70
2018-11-04T20:49:31.482Z,97.97
2018-11-04T20:52:05.850Z,93.55
2018-11-04T20:54:39.924Z,87.43
2018-11-04T20:57:19.075Z,107.43
2018-11-04T20:59:53.123Z,90.07
2018-11-04T21:02:27.642Z,277.70
2018-11-04T21:05:01.710Z,164.43
2018-11-04T21:07:36.080Z,139.92
2018-11-04T21:10:10.943Z,90.05
2018-11-04T21:12:45.124Z,228.90
2018-11-04T21:15:19.242Z,161.73
2018-11-04T21:17:53.410Z,99.55
2018-11-04T21:20:27.563Z,174.93
2018-11-04T21:23:01.773Z,130.30
2018-11-04T21:25:36.187Z,199.70
2018-11-04T21:28:10.240Z,172.23
2018-11-04T21:30:44.442Z,116.87
2018-11-04T21:33:18.692Z,117.37
2018-11-04T21:35:52.962Z,150.22
2018-11-04T21:38:27.238Z,107.47
2018-11-04T21:41:01.788Z,105.35
2018-11-04T21:43:36.159Z,121.13
2018-11-04T21:46:10.876Z,114.37
2018-11-04T21:48:45.829Z,105.20
2018-11-04T21:51:20.033Z,212.23
2018-11-04T21:53:54.415Z,134.20
2018-11-04T21:56:28.603Z,105.87
2018-11-04T21:59:03.120Z,96.87
2018-11-04T22:01:37.630Z,91.82
2018-11-04T22:04:12.132Z,117.70
2018-11-04T22:06:46.545Z,90.07
2018-11-04T22:09:20.718Z,320.43
2018-11-04T22:11:54.861Z,235.65
2018-11-04T22:14:28.988Z,193.00
2018-11-04T22:17:03.028Z,105.70
2018-11-04T22:19:37.886Z,99.17
2018-11-04T22:22:12.160Z,111.77
2018-11-04T22:24:46.391Z,170.77
2018-11-04T22:27:20.765Z,126.00
2018-11-04T22:29:55.251Z,116.97
2018-11-04T22:32:29.407Z,128.05
2018-11-04T22:35:05.243Z,181.87
2018-11-04T22:37:41.332Z,110.52
2018-11-04T22:40:15.671Z,355.87
2018-11-04T22:42:50.179Z,88.93
2018-11-04T22:45:26.915Z,96.50
2018-11-04T22:48:02.194Z,214.40
2018-11-04T22:50:36.778Z,137.22
2018-11-04T22:53:12.874Z,96.50
2018-11-04T22:55:47.526Z,175.00
2018-11-04T22:58:21.666Z,96.15
2018-11-04T23:01:00.338Z,186.30
2018-11-04T23:03:35.545Z,138.55
2018-11-04T23:06:10.301Z,124.03
2018-11-04T23:08:45.564Z,199.62
2018-11-04T23:11:20.969Z,101.05
2018-11-04T23:13:55.132Z,100.47
2018-11-04T23:16:29.767Z,105.43
2018-11-04T23:19:03.906Z,124.03
2018-11-04T23:21:38.892Z,132.63
2018-11-04T23:24:14.269Z,225.23
2018-11-04T23:26:49.376Z,133.57
2018-11-04T23:29:23.537Z,89.70
2018-11-04T23:31:57.872Z,142.00
2018-11-04T23:34:33.641Z,118.03
2018-11-04T23:37:09.063Z,112.40
2018-11-04T23:39:43.117Z,95.63
2018-11-04T23:42:17.365Z,185.87
2018-11-04T23:44:51.464Z,266.47
2018-11-04T23:47:25.817Z,139.97
2018-11-04T23:50:00.023Z,132.10
2018-11-04T23:52:34.224Z,144.35
2018-11-04T23:55:09.340Z,139.30
2018-11-04T23:57:43.621Z,125.63
